Terminal Aerodrome Forecast
Issued by NWS

Home | Current Version | Previous Version | Graphics & Text | Print | Product List | Glossary On
Versions: 1 2 3 4 5 6 7 8 9 10 11 12
138
FTUS43 KBIS 141130 AAA
TAFMOT
TAF AMD
KMOT 141130Z 1411/1512 26009KT P6SM SKC
     FM141900 23008KT P6SM SKC=

USA.gov is the U.S. government's official web portal to all federal, state and local government web resources and services.